| time (UTC) | temp F | wind direction | speed knots | gust knots | rain 1hr in | rain 24hr in | rain mn in | humidity % | barometer mb |
| 20260509022219 | 51 | 255 | 0.0 | 0.0 | 0.00 | 0.00 | 0.00 | 87 | 1015.2 |
| 20260509021715 | 51 | 255 | 0.0 | 0.0 | 0.00 | 0.00 | 0.00 | 87 | 1015.2 |
| 20260509021213 | 51 | 255 | 0.0 | 0.0 | 0.00 | 0.00 | 0.00 | 86 | 1015.2 |
| 20260509020711 | 51 | 255 | 0.0 | 0.0 | 0.00 | 0.00 | 0.00 | 86 | 1015.2 |
| 20260509020207 | 51 | 255 | 0.0 | 0.0 | 0.00 | 0.00 | 0.00 | 86 | 1015.1 |
| 20260509015706 | 51 | 255 | 0.0 | 0.0 | 0.00 | 0.00 | 0.00 | 86 | 1015.0 |
| 20260509015204 | 51 | 255 | 0.0 | 0.0 | 0.00 | 0.00 | 0.00 | 85 | 1015.3 |
| 20260509014700 | 52 | 255 | 0.0 | 0.0 | 0.00 | 0.00 | 0.00 | 85 | 1015.0 |
| 20260509014156 | 52 | 255 | 0.0 | 0.0 | 0.00 | 0.00 | 0.00 | 85 | 1015.1 |
| 20260509013653 | 52 | 255 | 0.0 | 0.0 | 0.00 | 0.00 | 0.00 | 84 | 1015.0 |
| 20260509013149 | 52 | 255 | 0.0 | 0.0 | 0.00 | 0.00 | 0.00 | 84 | 1014.7 |
| 20260509012645 | 53 | 255 | 0.0 | 0.0 | 0.00 | 0.00 | 0.00 | 83 | 1014.8 |
| 20260509012143 | 53 | 255 | 0.0 | 0.0 | 0.00 | 0.00 | 0.00 | 82 | 1014.8 |
| 20260509011641 | 53 | 255 | 0.0 | 0.0 | 0.00 | 0.00 | 0.00 | 82 | 1014.8 |
| 20260509011138 | 54 | 255 | 0.0 | 0.0 | 0.00 | 0.00 | 0.00 | 80 | 1014.8 |
| 20260509010635 | 54 | 255 | 0.0 | 0.0 | 0.00 | 0.00 | 0.00 | 80 | 1014.8 |
| 20260509010131 | 54 | 255 | 0.0 | 0.0 | 0.00 | 0.00 | 0.00 | 80 | 1014.8 |
| 20260509005629 | 55 | 255 | 0.0 | 0.0 | 0.00 | 0.00 | 0.00 | 79 | 1015.0 |
| 20260509005125 | 55 | 255 | 0.0 | 0.0 | 0.00 | 0.00 | 0.00 | 78 | 1014.6 |
| 20260509004621 | 55 | 255 | 0.0 | 0.0 | 0.00 | 0.00 | 0.00 | 75 | 1014.8 |
| 20260509004118 | 55 | 256 | 0.0 | 0.0 | 0.00 | 0.00 | 0.00 | 76 | 1014.6 |
| 20260509003617 | 56 | 256 | 0.0 | 0.9 | 0.00 | 0.00 | 0.00 | 75 | 1014.6 |
| 20260509003114 | 56 | 257 | 0.0 | 0.0 | 0.00 | 0.00 | 0.00 | 74 | 1014.7 |
| 20260509002611 | 57 | 257 | 0.0 | 0.9 | 0.00 | 0.00 | 0.00 | 72 | 1014.7 |
| 20260509002108 | 57 | 258 | 0.0 | 0.0 | 0.00 | 0.00 | 0.00 | 73 | 1014.4 |
| 20260509001606 | 58 | 258 | 0.0 | 0.0 | 0.00 | 0.00 | 0.00 | 72 | 1014.3 |
| 20260509001101 | 58 | 258 | 0.0 | 0.0 | 0.00 | 0.00 | 0.00 | 70 | 1014.4 |
| 20260509000600 | 59 | 258 | 0.0 | 0.9 | 0.00 | 0.00 | 0.00 | 68 | 1014.2 |
| 20260509000056 | 59 | 258 | 0.0 | 1.7 | 0.00 | 0.00 | 0.00 | 67 | 1014.6 |
| 20260508235553 | 59 | 250 | 0.0 | 0.9 | 0.00 | 0.00 | 0.00 | 65 | 1014.3 |
| 20260508235050 | 60 | 253 | 0.0 | 1.7 | 0.00 | 0.00 | 0.00 | 66 | 1014.2 |
| 20260508234547 | 60 | 240 | 0.9 | 0.9 | 0.00 | 0.00 | 0.00 | 60 | 1014.3 |
| 20260508234044 | 60 | 242 | 0.9 | 1.7 | 0.00 | 0.00 | 0.00 | 61 | 1014.3 |
| 20260508233543 | 60 | 326 | 0.9 | 2.6 | 0.00 | 0.00 | 0.00 | 59 | 1014.2 |
| 20260508233040 | 61 | 273 | 0.0 | 0.9 | 0.00 | 0.00 | 0.00 | 63 | 1014.3 |
| 20260508232537 | 61 | 237 | 0.9 | 1.7 | 0.00 | 0.00 | 0.00 | 60 | 1014.3 |
| 20260508232034 | 61 | 233 | 0.9 | 1.7 | 0.00 | 0.00 | 0.00 | 59 | 1014.0 |
| 20260508231532 | 62 | 188 | 1.7 | 2.6 | 0.00 | 0.00 | 0.00 | 59 | 1014.2 |
| 20260508231028 | 62 | 253 | 0.0 | 0.0 | 0.00 | 0.00 | 0.00 | 57 | 1014.2 |
| 20260508230525 | 63 | 249 | 0.0 | 2.6 | 0.00 | 0.00 | 0.00 | 58 | 1014.3 |
| 20260508230022 | 63 | 255 | 0.0 | 0.0 | 0.00 | 0.00 | 0.00 | 58 | 1014.0 |
| 20260508225519 | 63 | 228 | 1.7 | 2.6 | 0.00 | 0.00 | 0.00 | 55 | 1014.0 |
| 20260508225016 | 64 | 272 | 0.0 | 0.9 | 0.00 | 0.00 | 0.00 | 59 | 1014.1 |
| 20260508224514 | 64 | 262 | 0.0 | 0.9 | 0.00 | 0.00 | 0.00 | 54 | 1013.8 |
| 20260508224011 | 65 | 284 | 0.0 | 0.9 | 0.00 | 0.00 | 0.00 | 58 | 1013.9 |
| 20260508223509 | 65 | 247 | 0.9 | 0.9 | 0.00 | 0.00 | 0.00 | 53 | 1014.1 |
| 20260508223006 | 65 | 264 | 0.0 | 0.9 | 0.00 | 0.00 | 0.00 | 53 | 1014.1 |
| 20260508222503 | 66 | 280 | 0.9 | 1.7 | 0.00 | 0.00 | 0.00 | 53 | 1013.9 |
| 20260508221959 | 66 | 280 | 0.0 | 0.0 | 0.00 | 0.00 | 0.00 | 50 | 1014.1 |
| 20260508221455 | 67 | 292 | 0.0 | 0.0 | 0.00 | 0.00 | 0.00 | 47 | 1014.0 |
| 20260508220952 | 67 | 295 | 0.0 | 0.9 | 0.00 | 0.00 | 0.00 | 43 | 1014.0 |
| 20260508220448 | 68 | 247 | 0.9 | 0.9 | 0.00 | 0.00 | 0.00 | 39 | 1013.8 |
| 20260508215944 | 69 | 286 | 0.0 | 0.9 | 0.00 | 0.00 | 0.00 | 39 | 1013.8 |
| 20260508215442 | 70 | 284 | 0.9 | 0.9 | 0.00 | 0.00 | 0.00 | 41 | 1013.9 |
| 20260508214938 | 70 | 282 | 0.9 | 0.9 | 0.00 | 0.00 | 0.00 | 44 | 1013.8 |
| 20260508214437 | 70 | 290 | 0.0 | 1.7 | 0.00 | 0.00 | 0.00 | 35 | 1014.0 |
| 20260508213932 | 71 | 290 | 0.9 | 0.9 | 0.00 | 0.00 | 0.00 | 40 | 1014.1 |
| 20260508213430 | 70 | 280 | 0.9 | 0.9 | 0.00 | 0.00 | 0.00 | 39 | 1014.4 |
| 20260508212925 | 69 | 291 | 0.9 | 1.7 | 0.00 | 0.00 | 0.00 | 34 | 1013.9 |
| 20260508212422 | 69 | 296 | 0.9 | 2.6 | 0.00 | 0.00 | 0.00 | 36 | 1013.9 |
| 20260508211918 | 69 | 288 | 0.9 | 1.7 | 0.00 | 0.00 | 0.00 | 40 | 1013.8 |
| 20260508211414 | 70 | 280 | 0.9 | 0.9 | 0.00 | 0.00 | 0.00 | 38 | 1013.7 |
| 20260508210911 | 68 | 290 | 0.9 | 0.9 | 0.00 | 0.00 | 0.00 | 40 | 1013.8 |
| 20260508210407 | 68 | 300 | 1.7 | 1.7 | 0.00 | 0.00 | 0.00 | 37 | 1013.9 |
| 20260508205903 | 68 | 251 | 0.0 | 0.9 | 0.00 | 0.00 | 0.00 | 37 | 1013.7 |
| 20260508205401 | 68 | 240 | 0.9 | 1.7 | 0.00 | 0.00 | 0.00 | 35 | 1013.8 |
| 20260508204857 | 70 | 249 | 0.9 | 1.7 | 0.00 | 0.00 | 0.00 | 32 | 1013.9 |
| 20260508204354 | 70 | 289 | 0.0 | 1.7 | 0.00 | 0.00 | 0.00 | 37 | 1014.0 |
| 20260508203849 | 71 | 284 | 0.9 | 1.7 | 0.00 | 0.00 | 0.00 | 30 | 1014.0 |
| 20260508203346 | 72 | 248 | 1.7 | 1.7 | 0.00 | 0.00 | 0.00 | 33 | 1013.9 |
| 20260508202841 | 71 | 293 | 0.0 | 0.9 | 0.00 | 0.00 | 0.00 | 29 | 1013.8 |
| 20260508202340 | 70 | 251 | 0.9 | 0.9 | 0.00 | 0.00 | 0.00 | 33 | 1013.9 |
| 20260508201837 | 69 | 291 | 0.9 | 1.7 | 0.00 | 0.00 | 0.00 | 34 | 1014.1 |
| 20260508201334 | 69 | 294 | 1.7 | 1.7 | 0.00 | 0.00 | 0.00 | 39 | 1014.2 |
| 20260508200830 | 69 | 231 | 0.9 | 1.7 | 0.00 | 0.00 | 0.00 | 40 | 1014.3 |
| 20260508200327 | 68 | 285 | 0.9 | 1.7 | 0.00 | 0.00 | 0.00 | 34 | 1014.5 |
| 20260508195822 | 68 | 293 | 0.9 | 1.7 | 0.00 | 0.00 | 0.00 | 38 | 1014.5 |
| 20260508195320 | 69 | 295 | 1.7 | 3.5 | 0.00 | 0.00 | 0.00 | 36 | 1014.4 |
| 20260508194816 | 70 | 281 | 0.9 | 1.7 | 0.00 | 0.00 | 0.00 | 41 | 1014.5 |
| 20260508194313 | 69 | 279 | 0.0 | 0.9 | 0.00 | 0.00 | 0.00 | 36 | 1014.5 |
| 20260508193810 | 68 | 272 | 0.0 | 0.9 | 0.00 | 0.00 | 0.00 | 41 | 1014.7 |
| 20260508193307 | 68 | 288 | 0.0 | 0.9 | 0.00 | 0.00 | 0.00 | 35 | 1014.7 |
| 20260508192803 | 69 | 275 | 0.9 | 2.6 | 0.00 | 0.00 | 0.00 | 39 | 1014.7 |
| 20260508192300 | 70 | 299 | 1.7 | 2.6 | 0.00 | 0.00 | 0.00 | 38 | 1015.2 |
| 20260508191757 | 70 | 280 | 0.9 | 1.7 | 0.00 | 0.00 | 0.00 | 38 | 1015.0 |
| 20260508191254 | 70 | 328 | 1.7 | 3.5 | 0.00 | 0.00 | 0.00 | 38 | 1014.8 |
| 20260508190752 | 69 | 291 | 1.7 | 1.7 | 0.00 | 0.00 | 0.00 | 36 | 1015.2 |
| 20260508190247 | 69 | 318 | 1.7 | 3.5 | 0.00 | 0.00 | 0.00 | 35 | 1015.1 |
| 20260508185744 | 68 | 279 | 0.9 | 1.7 | 0.00 | 0.00 | 0.00 | 37 | 1015.3 |
| 20260508185241 | 68 | 287 | 2.6 | 3.5 | 0.00 | 0.00 | 0.00 | 40 | 1015.2 |
| 20260508184738 | 67 | 289 | 0.9 | 1.7 | 0.00 | 0.00 | 0.00 | 38 | 1015.3 |
| 20260508184236 | 68 | 307 | 1.7 | 2.6 | 0.00 | 0.00 | 0.00 | 38 | 1015.5 |
| 20260508183732 | 68 | 287 | 0.9 | 1.7 | 0.00 | 0.00 | 0.00 | 36 | 1015.6 |
| 20260508183228 | 68 | 216 | 1.7 | 3.5 | 0.00 | 0.00 | 0.00 | 39 | 1015.5 |
| 20260508182724 | 68 | 310 | 1.7 | 2.6 | 0.00 | 0.00 | 0.00 | 37 | 1015.5 |
| 20260508182222 | 68 | 318 | 2.6 | 2.6 | 0.00 | 0.00 | 0.00 | 37 | 1015.6 |
| 20260508181718 | 67 | 280 | 0.9 | 0.9 | 0.00 | 0.00 | 0.00 | 42 | 1015.7 |
| 20260508181215 | 66 | 268 | 0.0 | 2.6 | 0.00 | 0.00 | 0.00 | 36 | 1015.8 |
| 20260508180711 | 65 | 286 | 0.0 | 1.7 | 0.00 | 0.00 | 0.00 | 39 | 1015.8 |
| 20260508180208 | 65 | 307 | 1.7 | 3.5 | 0.00 | 0.00 | 0.00 | 43 | 1015.8 |
| 20260508175705 | 65 | 289 | 0.9 | 2.6 | 0.00 | 0.00 | 0.00 | 38 | 1015.6 |
| 20260508175201 | 65 | 303 | 1.7 | 6.1 | 0.00 | 0.00 | 0.00 | 42 | 1015.8 |
| 20260508174659 | 64 | 288 | 1.7 | 2.6 | 0.00 | 0.00 | 0.00 | 47 | 1015.9 |
| 20260508174155 | 65 | 303 | 1.7 | 2.6 | 0.00 | 0.00 | 0.00 | 41 | 1016.0 |
| 20260508173652 | 64 | 271 | 0.0 | 1.7 | 0.00 | 0.00 | 0.00 | 40 | 1016.3 |
| 20260508173148 | 64 | 315 | 3.5 | 3.5 | 0.00 | 0.00 | 0.00 | 41 | 1016.4 |
| 20260508172646 | 64 | 284 | 0.9 | 3.5 | 0.00 | 0.00 | 0.00 | 40 | 1016.4 |
| 20260508172143 | 64 | 283 | 0.9 | 2.6 | 0.00 | 0.00 | 0.00 | 43 | 1016.5 |
| 20260508171639 | 63 | 301 | 1.7 | 1.7 | 0.00 | 0.00 | 0.00 | 38 | 1016.4 |
| 20260508171135 | 63 | 290 | 1.7 | 1.7 | 0.00 | 0.00 | 0.00 | 44 | 1016.6 |
| 20260508170633 | 63 | 295 | 1.7 | 1.7 | 0.00 | 0.00 | 0.00 | 36 | 1016.6 |
| 20260508170130 | 63 | 290 | 0.9 | 1.7 | 0.00 | 0.00 | 0.00 | 40 | 1016.9 |
| 20260508165627 | 62 | 313 | 1.7 | 2.6 | 0.00 | 0.00 | 0.00 | 41 | 1016.9 |
| 20260508165124 | 62 | 293 | 1.7 | 1.7 | 0.00 | 0.00 | 0.00 | 37 | 1017.2 |
| 20260508164620 | 62 | 299 | 1.7 | 1.7 | 0.00 | 0.00 | 0.00 | 42 | 1017.4 |
| 20260508164118 | 61 | 285 | 0.0 | 1.7 | 0.00 | 0.00 | 0.00 | 38 | 1017.2 |
| 20260508163615 | 61 | 292 | 1.7 | 2.6 | 0.00 | 0.00 | 0.00 | 41 | 1017.5 |
| 20260508163112 | 61 | 296 | 1.7 | 2.6 | 0.00 | 0.00 | 0.00 | 40 | 1017.5 |
| 20260508162608 | 60 | 303 | 0.9 | 2.6 | 0.00 | 0.00 | 0.00 | 35 | 1017.4 |
| 20260508162106 | 60 | 270 | 0.0 | 0.9 | 0.00 | 0.00 | 0.00 | 40 | 1017.5 |
| 20260508161602 | 59 | 274 | 0.9 | 1.7 | 0.00 | 0.00 | 0.00 | 34 | 1017.4 |
| 20260508161100 | 59 | 274 | 0.0 | 0.9 | 0.00 | 0.00 | 0.00 | 33 | 1017.2 |
| 20260508160558 | 58 | 285 | 0.9 | 0.9 | 0.00 | 0.00 | 0.00 | 41 | 1017.6 |
| 20260508160054 | 58 | 296 | 1.7 | 1.7 | 0.00 | 0.00 | 0.00 | 43 | 1017.5 |
| 20260508155552 | 57 | 277 | 0.9 | 1.7 | 0.00 | 0.00 | 0.00 | 48 | 1017.6 |
| 20260508155049 | 58 | 294 | 1.7 | 2.6 | 0.00 | 0.00 | 0.00 | 45 | 1017.8 |
| 20260508154546 | 57 | 293 | 1.7 | 1.7 | 0.00 | 0.00 | 0.00 | 50 | 1017.8 |
| 20260508154042 | 56 | 285 | 0.9 | 0.9 | 0.00 | 0.00 | 0.00 | 51 | 1018.0 |
| 20260508153539 | 56 | 288 | 1.7 | 2.6 | 0.00 | 0.00 | 0.00 | 51 | 1018.1 |
| 20260508153036 | 56 | 286 | 0.9 | 1.7 | 0.00 | 0.00 | 0.00 | 50 | 1018.2 |
| 20260508152533 | 55 | 281 | 0.9 | 2.6 | 0.00 | 0.00 | 0.00 | 50 | 1018.2 |
| 20260508152028 | 55 | 276 | 0.0 | 0.9 | 0.00 | 0.00 | 0.00 | 52 | 1018.1 |
| 20260508151525 | 54 | 291 | 0.9 | 1.7 | 0.00 | 0.00 | 0.00 | 58 | 1018.3 |
| 20260508151022 | 53 | 275 | 0.0 | 0.9 | 0.00 | 0.00 | 0.00 | 68 | 1018.4 |
| 20260508150519 | 53 | 266 | 0.0 | 0.9 | 0.00 | 0.00 | 0.00 | 67 | 1018.2 |
| 20260508150015 | 52 | 262 | 0.9 | 0.9 | 0.00 | 0.00 | 0.00 | 63 | 1018.2 |
| 20260508145512 | 52 | 271 | 0.0 | 0.9 | 0.00 | 0.00 | 0.00 | 68 | 1018.2 |
| 20260508145008 | 51 | 280 | 0.0 | 0.0 | 0.00 | 0.00 | 0.00 | 72 | 1018.5 |
| 20260508144506 | 51 | 280 | 0.0 | 0.9 | 0.00 | 0.00 | 0.00 | 72 | 1018.3 |
| 20260508144003 | 51 | 280 | 0.0 | 0.9 | 0.00 | 0.00 | 0.00 | 72 | 1018.4 |
| 20260508143500 | 50 | 280 | 0.0 | 1.7 | 0.00 | 0.00 | 0.00 | 72 | 1018.5 |
| 20260508142956 | 49 | 247 | 0.0 | 0.9 | 0.00 | 0.00 | 0.00 | 79 | 1018.4 |
| 20260508142454 | 49 | 247 | 0.9 | 0.9 | 0.00 | 0.00 | 0.00 | 75 | 1018.7 |
| 20260508141950 | 48 | 247 | 0.9 | 0.9 | 0.00 | 0.00 | 0.00 | 79 | 1018.7 |
| 20260508141447 | 48 | 247 | 0.0 | 1.7 | 0.00 | 0.00 | 0.00 | 78 | 1018.8 |
| 20260508140945 | 47 | 247 | 0.0 | 0.9 | 0.00 | 0.00 | 0.00 | 83 | 1018.7 |
| 20260508140442 | 47 | 247 | 1.7 | 1.7 | 0.00 | 0.00 | 0.00 | 84 | 1018.7 |
| 20260508135937 | 46 | 247 | 0.9 | 0.9 | 0.00 | 0.00 | 0.00 | 84 | 1018.7 |
| 20260508135434 | 46 | 247 | 0.9 | 0.9 | 0.00 | 0.00 | 0.00 | 85 | 1018.7 |
| 20260508134931 | 46 | 247 | 0.9 | 0.9 | 0.00 | 0.00 | 0.00 | 85 | 1018.8 |
| 20260508134427 | 45 | 247 | 0.0 | 0.9 | 0.00 | 0.00 | 0.00 | 88 | 1018.9 |
| 20260508133923 | 45 | 247 | 0.0 | 0.9 | 0.00 | 0.00 | 0.00 | 88 | 1018.7 |
| 20260508133421 | 44 | 247 | 0.9 | 0.9 | 0.00 | 0.00 | 0.00 | 89 | 1018.7 |
| 20260508132918 | 44 | 247 | 0.0 | 0.0 | 0.00 | 0.00 | 0.00 | 90 | 1018.9 |
| 20260508132416 | 43 | 247 | 0.0 | 0.0 | 0.00 | 0.00 | 0.00 | 91 | 1018.7 |
| 20260508131913 | 43 | 247 | 0.9 | 0.9 | 0.00 | 0.00 | 0.00 | 93 | 1018.9 |
| 20260508131408 | 42 | 247 | 0.0 | 0.0 | 0.00 | 0.00 | 0.00 | 95 | 1018.7 |
| 20260508130905 | 42 | 247 | 0.0 | 0.0 | 0.00 | 0.00 | 0.00 | 95 | 1018.8 |
| 20260508130402 | 41 | 247 | 0.0 | 0.0 | 0.00 | 0.00 | 0.00 | 96 | 1018.9 |
| 20260508125857 | 41 | 247 | 0.0 | 0.0 | 0.00 | 0.00 | 0.00 | 97 | 1018.8 |
| 20260508125354 | 41 | 247 | 0.0 | 0.0 | 0.00 | 0.00 | 0.00 | 97 | 1019.0 |
| 20260508124852 | 40 | 247 | 0.0 | 0.0 | 0.00 | 0.00 | 0.00 | 97 | 1018.8 |
| 20260508124349 | 40 | 247 | 0.0 | 0.0 | 0.00 | 0.00 | 0.00 | 97 | 1018.9 |
| 20260508123847 | 39 | 247 | 0.0 | 0.0 | 0.00 | 0.00 | 0.00 | 97 | 1018.8 |
| 20260508123345 | 39 | 247 | 0.0 | 0.0 | 0.00 | 0.00 | 0.00 | 97 | 1018.8 |
| 20260508122841 | 39 | 247 | 0.0 | 0.0 | 0.00 | 0.00 | 0.00 | 97 | 1018.7 |
| 20260508122338 | 39 | 247 | 0.0 | 0.0 | 0.00 | 0.00 | 0.00 | 97 | 1018.7 |
| 20260508121835 | 39 | 247 | 0.0 | 0.0 | 0.00 | 0.00 | 0.00 | 97 | 1018.5 |
| 20260508121334 | 38 | 247 | 0.0 | 0.0 | 0.00 | 0.00 | 0.00 | 97 | 1018.5 |
| 20260508120831 | 38 | 247 | 0.0 | 0.0 | 0.00 | 0.00 | 0.00 | 97 | 1018.4 |
| 20260508120329 | 38 | 247 | 0.0 | 0.0 | 0.00 | 0.00 | 0.00 | 97 | 1018.8 |
| 20260508115826 | 38 | 247 | 0.0 | 0.0 | 0.00 | 0.00 | 0.00 | 96 | 1018.4 |
| 20260508115324 | 38 | 247 | 0.0 | 0.0 | 0.00 | 0.00 | 0.00 | 96 | 1018.3 |
| 20260508114820 | 38 | 247 | 0.0 | 0.0 | 0.00 | 0.00 | 0.00 | 96 | 1018.3 |
| 20260508114317 | 38 | 247 | 0.0 | 0.0 | 0.00 | 0.00 | 0.00 | 96 | 1018.2 |
| 20260508113813 | 38 | 247 | 0.0 | 0.0 | 0.00 | 0.00 | 0.00 | 96 | 1018.2 |
| 20260508113312 | 38 | 247 | 0.0 | 0.0 | 0.00 | 0.00 | 0.00 | 96 | 1018.0 |
| 20260508112808 | 38 | 247 | 0.0 | 0.0 | 0.00 | 0.00 | 0.00 | 96 | 1018.0 |
| 20260508112307 | 38 | 247 | 0.0 | 0.0 | 0.00 | 0.00 | 0.00 | 96 | 1018.0 |
| 20260508111801 | 37 | 247 | 0.0 | 0.0 | 0.00 | 0.00 | 0.00 | 96 | 1018.1 |
| 20260508111259 | 38 | 247 | 0.0 | 0.0 | 0.00 | 0.00 | 0.00 | 96 | 1017.8 |
| 20260508110756 | 37 | 247 | 0.0 | 0.0 | 0.00 | 0.00 | 0.00 | 96 | 1017.7 |
| 20260508110253 | 38 | 247 | 0.0 | 0.0 | 0.00 | 0.00 | 0.00 | 96 | 1017.7 |
| 20260508105753 | 38 | 247 | 0.0 | 0.0 | 0.00 | 0.00 | 0.00 | 96 | 1017.6 |
| 20260508105250 | 38 | 247 | 0.0 | 0.0 | 0.00 | 0.00 | 0.00 | 96 | 1017.6 |
| 20260508104747 | 38 | 247 | 0.0 | 0.0 | 0.00 | 0.00 | 0.00 | 96 | 1017.5 |
| 20260508104244 | 38 | 247 | 0.0 | 0.0 | 0.00 | 0.00 | 0.00 | 96 | 1017.4 |
| 20260508103742 | 38 | 247 | 0.0 | 0.0 | 0.00 | 0.00 | 0.00 | 96 | 1017.4 |
| 20260508103238 | 38 | 247 | 0.0 | 0.0 | 0.00 | 0.00 | 0.00 | 95 | 1017.4 |
| 20260508102735 | 38 | 247 | 0.0 | 0.0 | 0.00 | 0.00 | 0.00 | 96 | 1017.2 |
| 20260508102233 | 38 | 247 | 0.0 | 0.0 | 0.00 | 0.00 | 0.00 | 96 | 1017.0 |
| 20260508101730 | 39 | 247 | 0.0 | 0.0 | 0.00 | 0.00 | 0.00 | 96 | 1017.0 |
| 20260508101228 | 39 | 247 | 0.0 | 0.0 | 0.00 | 0.00 | 0.00 | 96 | 1016.9 |
| 20260508100726 | 39 | 247 | 0.0 | 0.0 | 0.00 | 0.00 | 0.00 | 95 | 1017.2 |
| 20260508100223 | 39 | 247 | 0.0 | 0.0 | 0.00 | 0.00 | 0.00 | 95 | 1016.9 |
| 20260508095719 | 39 | 247 | 0.0 | 0.0 | 0.00 | 0.00 | 0.00 | 95 | 1016.8 |
| 20260508095217 | 39 | 247 | 0.0 | 0.0 | 0.00 | 0.00 | 0.00 | 95 | 1016.9 |
| 20260508094713 | 39 | 247 | 0.0 | 0.0 | 0.00 | 0.00 | 0.00 | 95 | 1016.7 |
| 20260508094210 | 39 | 247 | 0.0 | 0.0 | 0.00 | 0.00 | 0.00 | 95 | 1016.8 |
| 20260508093707 | 39 | 247 | 0.0 | 0.0 | 0.00 | 0.00 | 0.00 | 95 | 1016.8 |
| 20260508093205 | 39 | 247 | 0.0 | 0.0 | 0.00 | 0.00 | 0.00 | 95 | 1016.7 |
| 20260508092702 | 40 | 247 | 0.0 | 0.0 | 0.00 | 0.00 | 0.00 | 95 | 1016.8 |
| 20260508092200 | 40 | 247 | 0.0 | 0.0 | 0.00 | 0.00 | 0.00 | 95 | 1016.6 |
| 20260508091657 | 40 | 247 | 0.0 | 0.0 | 0.00 | 0.00 | 0.00 | 95 | 1016.8 |
| 20260508091155 | 40 | 247 | 0.0 | 0.0 | 0.00 | 0.00 | 0.00 | 95 | 1016.9 |
| 20260508090652 | 40 | 247 | 0.0 | 0.0 | 0.00 | 0.00 | 0.00 | 95 | 1016.6 |
| 20260508090150 | 40 | 247 | 0.0 | 0.0 | 0.00 | 0.00 | 0.00 | 95 | 1016.5 |
| 20260508085645 | 40 | 247 | 0.0 | 0.0 | 0.00 | 0.00 | 0.00 | 95 | 1016.4 |
| 20260508085143 | 40 | 247 | 0.0 | 0.0 | 0.00 | 0.00 | 0.00 | 95 | 1016.6 |
| 20260508084639 | 41 | 247 | 0.0 | 0.0 | 0.00 | 0.00 | 0.00 | 95 | 1016.6 |
| 20260508084136 | 41 | 247 | 0.0 | 0.0 | 0.00 | 0.00 | 0.00 | 95 | 1016.4 |
| 20260508083634 | 41 | 247 | 0.0 | 0.0 | 0.00 | 0.00 | 0.00 | 94 | 1016.6 |
| 20260508083131 | 41 | 247 | 0.0 | 0.0 | 0.00 | 0.00 | 0.00 | 94 | 1016.6 |
| 20260508082626 | 41 | 247 | 0.0 | 0.0 | 0.00 | 0.00 | 0.00 | 94 | 1016.7 |
| 20260508082124 | 41 | 247 | 0.0 | 0.0 | 0.00 | 0.00 | 0.00 | 93 | 1016.4 |
| 20260508081621 | 42 | 247 | 0.0 | 0.0 | 0.00 | 0.00 | 0.00 | 94 | 1016.3 |
| 20260508081117 | 42 | 247 | 0.0 | 0.0 | 0.00 | 0.00 | 0.00 | 93 | 1016.4 |
| 20260508080615 | 42 | 247 | 0.0 | 0.0 | 0.00 | 0.00 | 0.00 | 93 | 1016.4 |
| 20260508080113 | 42 | 247 | 0.0 | 0.0 | 0.00 | 0.00 | 0.00 | 94 | 1016.3 |
| 20260508075609 | 43 | 247 | 0.0 | 0.0 | 0.00 | 0.00 | 0.00 | 93 | 1016.0 |
| 20260508075106 | 43 | 247 | 0.0 | 0.0 | 0.00 | 0.00 | 0.00 | 93 | 1016.3 |
| 20260508074604 | 43 | 247 | 0.0 | 0.9 | 0.00 | 0.00 | 0.00 | 93 | 1016.3 |
| 20260508074101 | 43 | 247 | 0.0 | 0.9 | 0.00 | 0.00 | 0.00 | 93 | 1016.5 |
| 20260508073558 | 43 | 247 | 0.0 | 0.0 | 0.00 | 0.00 | 0.00 | 94 | 1016.3 |
| 20260508073056 | 43 | 247 | 0.0 | 0.0 | 0.00 | 0.00 | 0.00 | 94 | 1016.4 |
| 20260508072551 | 44 | 247 | 0.0 | 0.0 | 0.00 | 0.00 | 0.00 | 94 | 1016.4 |
| 20260508072048 | 44 | 247 | 0.0 | 0.0 | 0.00 | 0.00 | 0.00 | 94 | 1016.3 |
| 20260508071546 | 44 | 247 | 0.0 | 0.0 | 0.00 | 0.00 | 0.00 | 95 | 1016.4 |
| 20260508071044 | 44 | 247 | 0.0 | 0.9 | 0.00 | 0.00 | 0.00 | 95 | 1016.3 |
| 20260508070541 | 44 | 247 | 0.0 | 0.0 | 0.00 | 0.00 | 0.00 | 95 | 1016.5 |
| 20260508070039 | 44 | 247 | 0.0 | 0.0 | 0.00 | 0.00 | 0.00 | 95 | 1016.3 |
| 20260508065537 | 44 | 247 | 0.0 | 0.0 | 0.00 | 0.00 | 0.00 | 95 | 1016.4 |
| 20260508065035 | 44 | 247 | 0.0 | 0.0 | 0.00 | 0.00 | 0.00 | 95 | 1016.4 |
| 20260508064532 | 44 | 247 | 0.0 | 0.0 | 0.00 | 0.00 | 0.00 | 95 | 1016.3 |
| 20260508064030 | 44 | 247 | 0.0 | 0.0 | 0.00 | 0.00 | 0.00 | 95 | 1016.3 |
| 20260508063527 | 44 | 247 | 0.0 | 0.0 | 0.00 | 0.00 | 0.00 | 94 | 1016.5 |
| 20260508063025 | 45 | 247 | 0.0 | 0.0 | 0.00 | 0.00 | 0.00 | 95 | 1016.2 |
| 20260508062522 | 45 | 247 | 0.0 | 0.0 | 0.00 | 0.00 | 0.00 | 94 | 1016.3 |
| 20260508062018 | 45 | 247 | 0.0 | 0.0 | 0.00 | 0.00 | 0.00 | 94 | 1016.3 |
| 20260508061517 | 45 | 247 | 0.0 | 0.0 | 0.00 | 0.00 | 0.00 | 94 | 1016.4 |
| 20260508061013 | 45 | 247 | 0.0 | 0.0 | 0.00 | 0.00 | 0.00 | 94 | 1016.3 |
| 20260508060510 | 46 | 247 | 0.0 | 0.0 | 0.00 | 0.00 | 0.00 | 95 | 1016.4 |
| 20260508060008 | 46 | 247 | 0.0 | 0.0 | 0.00 | 0.00 | 0.00 | 94 | 1016.5 |
| 20260508055503 | 46 | 247 | 0.0 | 0.0 | 0.00 | 0.00 | 0.00 | 94 | 1016.5 |
| 20260508055000 | 46 | 247 | 0.0 | 0.0 | 0.00 | 0.00 | 0.00 | 94 | 1016.5 |
| 20260508054456 | 46 | 247 | 0.0 | 0.0 | 0.00 | 0.00 | 0.00 | 94 | 1016.4 |
| 20260508053953 | 46 | 247 | 0.0 | 0.0 | 0.00 | 0.00 | 0.00 | 94 | 1016.5 |
| 20260508053450 | 47 | 247 | 0.0 | 0.0 | 0.00 | 0.00 | 0.00 | 94 | 1016.3 |
| 20260508052948 | 47 | 247 | 0.0 | 0.0 | 0.00 | 0.00 | 0.00 | 94 | 1016.5 |
| 20260508052446 | 47 | 247 | 0.0 | 0.0 | 0.00 | 0.00 | 0.00 | 94 | 1016.5 |
| 20260508051942 | 47 | 247 | 0.0 | 0.0 | 0.00 | 0.00 | 0.00 | 94 | 1016.7 |
| 20260508051437 | 47 | 247 | 0.0 | 0.0 | 0.00 | 0.00 | 0.00 | 94 | 1016.7 |
| 20260508050934 | 47 | 247 | 0.0 | 0.0 | 0.00 | 0.00 | 0.00 | 94 | 1016.5 |
| 20260508050431 | 47 | 247 | 0.0 | 0.0 | 0.00 | 0.00 | 0.00 | 94 | 1016.4 |
| 20260508045927 | 47 | 247 | 0.0 | 0.0 | 0.00 | 0.00 | 0.00 | 94 | 1016.5 |
| 20260508045425 | 47 | 247 | 0.0 | 0.0 | 0.00 | 0.00 | 0.00 | 94 | 1016.7 |
| 20260508044922 | 47 | 247 | 0.0 | 0.0 | 0.00 | 0.00 | 0.00 | 94 | 1016.4 |
| 20260508044419 | 47 | 247 | 0.0 | 0.0 | 0.00 | 0.00 | 0.00 | 94 | 1016.0 |
| 20260508043914 | 47 | 247 | 0.0 | 0.0 | 0.00 | 0.00 | 0.00 | 94 | 1016.0 |
| 20260508043412 | 47 | 247 | 0.0 | 0.0 | 0.00 | 0.00 | 0.00 | 95 | 1016.3 |
| 20260508042908 | 47 | 247 | 0.0 | 0.0 | 0.00 | 0.00 | 0.00 | 95 | 1016.2 |
| 20260508042406 | 47 | 247 | 0.0 | 0.9 | 0.00 | 0.00 | 0.00 | 95 | 1016.2 |
| 20260508041903 | 46 | 255 | 0.0 | 0.0 | 0.00 | 0.00 | 0.00 | 95 | 1016.0 |
| 20260508041359 | 46 | 255 | 0.0 | 0.0 | 0.00 | 0.00 | 0.00 | 95 | 1016.2 |
| 20260508040855 | 46 | 255 | 0.0 | 0.0 | 0.00 | 0.00 | 0.00 | 95 | 1016.0 |
| 20260508040353 | 46 | 255 | 0.0 | 0.0 | 0.00 | 0.00 | 0.00 | 95 | 1015.9 |
| 20260508035851 | 46 | 255 | 0.0 | 0.0 | 0.00 | 0.12 | 0.12 | 95 | 1016.0 |
| 20260508035348 | 46 | 255 | 0.0 | 0.0 | 0.00 | 0.12 | 0.12 | 95 | 1016.0 |
| 20260508034844 | 46 | 255 | 0.0 | 0.0 | 0.00 | 0.12 | 0.12 | 95 | 1016.2 |
| 20260508034342 | 46 | 255 | 0.0 | 0.0 | 0.00 | 0.12 | 0.12 | 95 | 1015.9 |
| 20260508033838 | 46 | 255 | 0.0 | 0.0 | 0.00 | 0.12 | 0.12 | 95 | 1016.4 |
| 20260508033336 | 45 | 255 | 0.0 | 0.0 | 0.00 | 0.12 | 0.12 | 95 | 1016.3 |
| 20260508032833 | 45 | 255 | 0.0 | 0.0 | 0.00 | 0.12 | 0.12 | 95 | 1016.4 |
| 20260508032331 | 45 | 255 | 0.0 | 0.0 | 0.00 | 0.12 | 0.12 | 95 | 1016.3 |
| 20260508031827 | 45 | 255 | 0.0 | 0.0 | 0.00 | 0.12 | 0.12 | 95 | 1016.4 |
| 20260508031324 | 45 | 255 | 0.0 | 0.0 | 0.00 | 0.12 | 0.12 | 95 | 1016.5 |
| 20260508030821 | 45 | 255 | 0.0 | 0.0 | 0.00 | 0.12 | 0.12 | 95 | 1016.3 |
| 20260508030318 | 45 | 255 | 0.0 | 0.0 | 0.00 | 0.12 | 0.12 | 95 | 1016.3 |
| 20260508025814 | 44 | 255 | 0.0 | 0.0 | 0.00 | 0.12 | 0.12 | 95 | 1016.5 |
| 20260508025312 | 44 | 255 | 0.0 | 0.0 | 0.00 | 0.12 | 0.12 | 95 | 1016.5 |
| 20260508024808 | 44 | 255 | 0.0 | 0.0 | 0.00 | 0.12 | 0.12 | 94 | 1016.4 |
| 20260508024305 | 44 | 255 | 0.0 | 0.0 | 0.00 | 0.12 | 0.12 | 95 | 1016.3 |
| 20260508023802 | 44 | 255 | 0.0 | 0.0 | 0.00 | 0.12 | 0.12 | 94 | 1016.3 |
| 20260508023258 | 45 | 255 | 0.0 | 0.0 | 0.00 | 0.12 | 0.12 | 94 | 1016.0 |
| 20260508022754 | 45 | 255 | 0.0 | 0.0 | 0.00 | 0.12 | 0.12 | 94 | 1016.0 |